Time;durP1;ratioP1;P1;durP2;ratioP2;P2;SDS_P1;SDS_P2;PMS_P1;PMS_P2;Temp;Humidity;BMP_temperature;BMP_pressure;BME280_temperature;BME280_humidity;BME280_pressure;Samples;Min_cycle;Max_cycle;Signal;HPM_P1;HPM_P2
2022/05/02 00:00:09;;;;;;;35.03;21.63;;;9.40;99.90;;;;;;5030874;28;20412;-75
2022/05/02 00:02:36;;;;;;;33.42;20.90;;;9.40;99.90;;;;;;5030519;28;20068;-76
2022/05/02 00:05:02;;;;;;;34.60;20.95;;;9.40;99.90;;;;;;5030468;28;20065;-75
2022/05/02 00:07:28;;;;;;;32.90;19.60;;;9.30;99.90;;;;;;5030627;28;20685;-76
2022/05/02 00:09:53;;;;;;;34.17;20.80;;;9.30;99.90;;;;;;5030749;28;20369;-74
2022/05/02 00:12:19;;;;;;;30.80;19.50;;;9.30;99.90;;;;;;5030490;28;20041;-76
2022/05/02 00:14:45;;;;;;;31.55;18.90;;;9.30;99.90;;;;;;5030588;28;20366;-75
2022/05/02 00:17:10;;;;;;;31.27;19.00;;;9.30;99.90;;;;;;5030283;28;20049;-75
2022/05/02 00:19:36;;;;;;;28.75;18.13;;;9.20;99.90;;;;;;5030733;28;20075;-75
2022/05/02 00:22:01;;;;;;;27.40;17.23;;;9.20;99.90;;;;;;5030493;28;20029;-75
2022/05/02 00:24:27;;;;;;;28.60;17.50;;;9.20;99.90;;;;;;5030500;28;20492;-76
2022/05/02 00:26:53;;;;;;;26.55;17.88;;;9.20;99.90;;;;;;5030560;28;20045;-76
2022/05/02 00:29:18;;;;;;;26.90;16.33;;;9.10;99.90;;;;;;5030665;28;20397;-75
2022/05/02 00:31:45;;;;;;;25.48;16.58;;;9.10;99.90;;;;;;5030470;28;20024;-76
2022/05/02 00:34:12;;;;;;;25.50;15.20;;;9.10;99.90;;;;;;5030634;28;20071;-76
2022/05/02 00:36:38;;;;;;;24.90;15.60;;;9.10;99.90;;;;;;5030052;28;20030;-76
2022/05/02 00:39:03;;;;;;;25.73;15.07;;;9.10;99.90;;;;;;5030280;28;20040;-75
2022/05/02 00:41:29;;;;;;;24.17;16.00;;;9.00;99.90;;;;;;5030280;28;20116;-76
2022/05/02 00:43:55;;;;;;;23.65;15.52;;;9.00;99.90;;;;;;5030617;28;20440;-75
2022/05/02 00:46:25;;;;;;;22.08;14.85;;;9.00;99.90;;;;;;5030683;28;20068;-75
2022/05/02 00:48:52;;;;;;;23.92;14.80;;;9.00;99.90;;;;;;5030652;28;20041;-76
2022/05/02 00:51:19;;;;;;;23.35;14.75;;;9.00;99.90;;;;;;5030220;28;20021;-75
2022/05/02 00:53:47;;;;;;;24.75;15.07;;;9.00;99.90;;;;;;5030609;28;20022;-75
2022/05/02 00:56:15;;;;;;;21.83;14.32;;;9.00;99.90;;;;;;5030457;28;20064;-76
2022/05/02 00:58:40;;;;;;;21.38;14.55;;;9.00;99.90;;;;;;5030135;28;20040;-76
2022/05/02 01:01:06;;;;;;;26.48;14.70;;;9.00;99.90;;;;;;5030329;28;20500;-75
2022/05/02 01:03:33;;;;;;;21.17;14.77;;;8.90;99.90;;;;;;5030344;28;20430;-75
2022/05/02 01:08:43;;;;;;;24.60;13.48;;;8.90;99.90;;;;;;5029960;28;20044;-75
2022/05/02 01:11:09;;;;;;;19.90;12.88;;;8.90;99.90;;;;;;5029072;28;20385;-75
2022/05/02 01:13:36;;;;;;;25.40;14.23;;;8.90;99.90;;;;;;5030420;28;20029;-75
2022/05/02 01:16:12;;;;;;;19.50;13.30;;;8.90;99.90;;;;;;5028555;28;20030;-75
2022/05/02 01:18:38;;;;;;;21.58;13.77;;;8.80;99.90;;;;;;5029699;28;20076;-75
2022/05/02 01:21:14;;;;;;;20.85;13.25;;;8.80;99.90;;;;;;5029749;28;20017;-75
2022/05/02 01:23:41;;;;;;;20.58;12.88;;;8.80;99.90;;;;;;5030164;28;20497;-75
2022/05/02 01:26:07;;;;;;;19.40;12.93;;;8.80;99.90;;;;;;5029706;28;20029;-74
2022/05/02 01:28:47;;;;;;;19.60;12.40;;;8.80;99.90;;;;;;5029498;28;20021;-74
2022/05/02 01:31:14;;;;;;;20.63;12.95;;;8.80;99.90;;;;;;5029868;28;20029;-75
2022/05/02 01:33:40;;;;;;;21.13;13.13;;;8.80;99.90;;;;;;5029594;28;20100;-74
2022/05/02 01:36:06;;;;;;;20.58;13.10;;;8.80;99.90;;;;;;5029641;28;20565;-73
2022/05/02 01:38:32;;;;;;;18.67;13.40;;;8.70;99.90;;;;;;5029964;28;20109;-74
2022/05/02 01:40:59;;;;;;;22.17;13.65;;;8.70;99.90;;;;;;5029935;28;20025;-73
2022/05/02 01:43:25;;;;;;;19.50;13.30;;;8.70;99.90;;;;;;5032515;28;20033;-75
2022/05/02 01:45:51;;;;;;;22.35;13.68;;;8.70;99.90;;;;;;5013565;28;20395;-74
2022/05/02 01:48:16;;;;;;;21.35;13.68;;;8.70;99.90;;;;;;5013147;28;20014;-74
2022/05/02 01:50:42;;;;;;;21.73;13.95;;;8.70;99.90;;;;;;5013440;28;20026;-74
2022/05/02 01:53:07;;;;;;;20.88;13.15;;;8.60;99.90;;;;;;5013071;28;20022;-74
2022/05/02 01:55:33;;;;;;;21.67;13.98;;;8.60;99.90;;;;;;5013583;28;20026;-74
2022/05/02 01:57:59;;;;;;;21.38;14.40;;;8.60;99.90;;;;;;5012891;28;20136;-75
2022/05/02 02:00:24;;;;;;;22.05;13.80;;;8.60;99.90;;;;;;5012959;28;20030;-74
2022/05/02 02:02:50;;;;;;;20.60;13.93;;;8.60;99.90;;;;;;5013183;28;20038;-74
2022/05/02 02:07:59;;;;;;;21.30;14.55;;;8.60;99.90;;;;;;5012708;28;20065;-74
2022/05/02 02:10:25;;;;;;;25.98;14.63;;;8.60;99.90;;;;;;5013215;28;20034;-75
2022/05/02 02:12:51;;;;;;;22.45;13.20;;;8.50;99.90;;;;;;5012784;28;20540;-74
2022/05/02 02:15:16;;;;;;;22.98;13.77;;;8.50;99.90;;;;;;5012852;28;20032;-75
2022/05/02 02:17:42;;;;;;;20.98;13.57;;;8.50;99.90;;;;;;5012779;28;20107;-74
2022/05/02 02:20:08;;;;;;;21.05;13.15;;;8.50;99.90;;;;;;5012886;28;20037;-75
2022/05/02 02:22:35;;;;;;;18.23;12.93;;;8.50;99.90;;;;;;5012419;28;20022;-74
2022/05/02 02:25:01;;;;;;;21.02;12.65;;;8.50;99.90;;;;;;5012590;28;20029;-74
2022/05/02 02:27:27;;;;;;;22.30;13.77;;;8.50;99.90;;;;;;5012640;28;20022;-75
2022/05/02 02:29:53;;;;;;;22.65;13.52;;;8.40;99.90;;;;;;5011258;28;20026;-74
2022/05/02 02:32:18;;;;;;;19.58;13.18;;;8.40;99.90;;;;;;5012519;28;20042;-75
2022/05/02 02:34:44;;;;;;;20.33;13.45;;;8.40;99.90;;;;;;5012935;28;20346;-75
2022/05/02 02:37:09;;;;;;;19.35;12.35;;;8.40;99.90;;;;;;5012173;28;20453;-75
2022/05/02 02:39:35;;;;;;;20.80;13.65;;;8.40;99.90;;;;;;5012186;28;20088;-74
2022/05/02 02:42:01;;;;;;;19.80;13.13;;;8.40;99.90;;;;;;5012710;28;20477;-74
2022/05/02 02:44:26;;;;;;;20.38;12.73;;;8.30;99.90;;;;;;5012159;28;20085;-74
2022/05/02 02:46:52;;;;;;;18.08;11.95;;;8.30;99.90;;;;;;5012209;28;20469;-74
2022/05/02 02:49:17;;;;;;;20.17;13.23;;;8.30;99.90;;;;;;5012012;28;20034;-75
2022/05/02 02:51:43;;;;;;;19.13;12.57;;;8.30;99.90;;;;;;5011855;28;20030;-74
2022/05/02 02:54:08;;;;;;;23.10;13.88;;;8.30;99.90;;;;;;5012072;28;20179;-75
2022/05/02 02:56:34;;;;;;;21.58;13.30;;;8.30;99.90;;;;;;5012090;28;20478;-74
2022/05/02 02:58:59;;;;;;;22.52;13.40;;;8.20;99.90;;;;;;5011773;28;20525;-75
2022/05/02 03:01:25;;;;;;;19.70;12.75;;;8.20;99.90;;;;;;5011944;28;20529;-76
2022/05/02 03:03:51;;;;;;;20.08;12.93;;;8.20;99.90;;;;;;5011770;28;20057;-74
2022/05/02 03:06:17;;;;;;;23.17;13.43;;;8.20;99.90;;;;;;5010733;28;20486;-75
2022/05/02 03:08:44;;;;;;;18.80;12.63;;;8.20;99.90;;;;;;5011688;28;20065;-74
2022/05/02 03:11:10;;;;;;;22.20;13.60;;;8.20;99.90;;;;;;5012105;28;20105;-76
2022/05/02 03:13:36;;;;;;;20.25;13.40;;;8.10;99.90;;;;;;5012022;28;20061;-75
2022/05/02 03:16:03;;;;;;;21.25;13.60;;;8.10;99.90;;;;;;5011598;28;20018;-75
2022/05/02 03:18:29;;;;;;;20.65;13.55;;;8.10;99.90;;;;;;5011483;28;20049;-75
2022/05/02 03:20:54;;;;;;;19.85;13.20;;;8.10;99.90;;;;;;5011745;28;20109;-74
2022/05/02 03:23:21;;;;;;;18.70;12.68;;;8.10;99.90;;;;;;5011548;28;20045;-74
2022/05/02 03:25:47;;;;;;;20.27;13.95;;;8.00;99.90;;;;;;5011631;28;20033;-74
2022/05/02 03:28:13;;;;;;;20.65;13.70;;;8.00;99.90;;;;;;5011545;28;20030;-74
2022/05/02 03:30:39;;;;;;;20.73;13.13;;;8.00;99.90;;;;;;5011398;28;20679;-75
2022/05/02 03:33:04;;;;;;;20.67;13.80;;;8.00;99.90;;;;;;5011735;28;20022;-75
2022/05/02 03:35:30;;;;;;;21.17;13.82;;;8.00;99.90;;;;;;5009932;28;20156;-75
2022/05/02 03:37:56;;;;;;;19.30;13.10;;;8.00;99.90;;;;;;5011244;28;20038;-75
2022/05/02 03:40:22;;;;;;;21.77;14.25;;;7.90;99.90;;;;;;5011173;28;20022;-76
2022/05/02 03:42:47;;;;;;;20.30;13.43;;;7.90;99.90;;;;;;5011342;28;20034;-76
2022/05/02 03:45:13;;;;;;;18.70;12.95;;;7.90;99.90;;;;;;5011291;28;20030;-75
2022/05/02 03:47:38;;;;;;;18.77;13.18;;;7.90;99.90;;;;;;5011547;28;20025;-75
2022/05/02 03:50:05;;;;;;;20.75;13.90;;;7.90;99.90;;;;;;5011265;28;20051;-75
2022/05/02 03:52:30;;;;;;;20.25;13.50;;;7.80;99.90;;;;;;5011105;28;20100;-75
2022/05/02 03:54:56;;;;;;;21.63;13.85;;;7.80;99.90;;;;;;5011217;28;20133;-76
2022/05/02 03:57:22;;;;;;;21.27;13.18;;;7.80;99.90;;;;;;5011121;28;20076;-75
2022/05/02 03:59:48;;;;;;;22.42;13.07;;;7.80;99.90;;;;;;5011032;28;20017;-75
2022/05/02 04:02:14;;;;;;;22.58;14.32;;;7.80;99.90;;;;;;5011628;28;20029;-76
2022/05/02 04:04:39;;;;;;;20.23;13.65;;;7.80;99.90;;;;;;5010278;28;20458;-75
2022/05/02 04:07:05;;;;;;;20.58;14.13;;;7.80;99.90;;;;;;5010999;28;20033;-75
2022/05/02 04:09:31;;;;;;;23.38;14.18;;;7.70;99.90;;;;;;5009845;28;20034;-76
2022/05/02 04:11:56;;;;;;;20.58;13.45;;;7.70;99.90;;;;;;5010751;28;20394;-75
2022/05/02 04:14:22;;;;;;;21.92;13.65;;;7.70;99.90;;;;;;5010858;28;20018;-75
2022/05/02 04:16:50;;;;;;;23.08;14.20;;;7.70;99.90;;;;;;5010524;28;20381;-75
2022/05/02 04:19:16;;;;;;;22.67;14.45;;;7.70;99.90;;;;;;5010923;28;20041;-75
2022/05/02 04:21:42;;;;;;;24.88;14.32;;;7.70;99.90;;;;;;5010933;28;20390;-74
2022/05/02 04:24:08;;;;;;;19.73;13.32;;;7.70;99.90;;;;;;5010785;28;20470;-75
2022/05/02 04:26:34;;;;;;;22.63;13.75;;;7.70;99.90;;;;;;5010465;28;20064;-75
2022/05/02 04:28:59;;;;;;;23.40;14.15;;;7.70;99.90;;;;;;5010665;28;20026;-75
2022/05/02 04:31:25;;;;;;;25.35;15.27;;;7.70;99.90;;;;;;5010633;28;20083;-76
2022/05/02 04:33:51;;;;;;;21.13;14.18;;;7.70;99.90;;;;;;5010574;28;20026;-76
2022/05/02 04:36:17;;;;;;;25.35;14.25;;;7.70;99.90;;;;;;5010532;28;20044;-75
2022/05/02 04:38:42;;;;;;;21.65;13.68;;;7.60;99.90;;;;;;5010539;28;20026;-76
2022/05/02 04:41:10;;;;;;;20.15;13.32;;;7.60;99.90;;;;;;5010407;28;20056;-75
2022/05/02 04:43:37;;;;;;;23.17;14.20;;;7.60;99.90;;;;;;5010825;28;20038;-75
2022/05/02 04:46:02;;;;;;;21.15;14.02;;;7.60;99.90;;;;;;5010423;28;20105;-75
2022/05/02 04:48:28;;;;;;;20.73;14.57;;;7.70;99.90;;;;;;5010846;28;20022;-75
2022/05/02 04:50:53;;;;;;;23.05;14.88;;;7.70;99.90;;;;;;5010717;28;20018;-75
2022/05/02 04:53:19;;;;;;;20.08;13.77;;;7.70;99.90;;;;;;5010620;28;20101;-74
2022/05/02 04:55:45;;;;;;;23.85;13.77;;;7.70;99.90;;;;;;5010214;28;20522;-74
2022/05/02 04:58:10;;;;;;;22.15;14.50;;;7.70;99.90;;;;;;5010350;28;20052;-74
2022/05/02 05:00:36;;;;;;;20.40;13.75;;;7.70;99.90;;;;;;5010217;28;20026;-74
2022/05/02 05:03:04;;;;;;;26.08;13.82;;;7.70;99.90;;;;;;5010186;28;20030;-74
2022/05/02 05:05:29;;;;;;;21.85;13.73;;;7.80;99.90;;;;;;5010373;28;20022;-73
2022/05/02 05:07:55;;;;;;;24.85;15.85;;;7.80;99.90;;;;;;5025430;28;20041;-73
2022/05/02 05:10:20;;;;;;;25.60;15.00;;;7.80;99.90;;;;;;5024752;28;20030;-73
2022/05/02 05:12:46;;;;;;;21.63;14.70;;;7.80;99.90;;;;;;5028732;28;20025;-73
2022/05/02 05:18:57;;;;;;;23.20;15.55;;;7.90;99.90;;;;;;5029157;28;20071;-73
2022/05/02 05:21:53;;;;;;;22.92;14.90;;;7.90;99.90;;;;;;5021850;28;20319;-73
2022/05/02 05:24:42;;;;;;;23.23;15.38;;;7.90;99.90;;;;;;5030556;28;20029;-75
2022/05/02 05:27:41;;;;;;;22.08;14.30;;;8.00;99.90;;;;;;5027258;28;20053;-74
2022/05/02 05:30:08;;;;;;;25.30;16.15;;;8.00;99.90;;;;;;5034166;28;20049;-72
2022/05/02 05:32:45;;;;;;;23.00;15.40;;;8.00;99.90;;;;;;5032683;28;20057;-72
2022/05/02 05:35:15;;;;;;;25.60;15.95;;;8.10;99.90;;;;;;5034700;28;20039;-72
2022/05/02 05:37:58;;;;;;;24.38;14.98;;;8.10;99.90;;;;;;5029141;28;20405;-72
2022/05/02 05:40:48;;;;;;;23.95;15.63;;;8.10;99.90;;;;;;5033469;28;20052;-73
2022/05/02 05:43:23;;;;;;;22.75;16.25;;;8.20;99.90;;;;;;5027546;28;20055;-73
2022/05/02 05:45:55;;;;;;;23.90;15.82;;;8.20;99.90;;;;;;5029605;28;20560;-73
2022/05/02 05:48:58;;;;;;;23.55;15.85;;;8.20;99.90;;;;;;5031025;28;20033;-73
2022/05/02 05:51:34;;;;;;;23.58;16.15;;;8.30;99.90;;;;;;5037353;28;20075;-73
2022/05/02 05:54:27;;;;;;;26.35;16.23;;;8.30;99.90;;;;;;5034779;28;20063;-72
2022/05/02 05:57:25;;;;;;;26.00;16.60;;;8.40;99.90;;;;;;5014277;28;20034;-73
2022/05/02 06:00:14;;;;;;;27.95;17.42;;;8.40;99.90;;;;;;5014714;28;20422;-72
2022/05/02 06:02:58;;;;;;;29.85;17.52;;;8.40;99.90;;;;;;5033353;28;20025;-72
2022/05/02 06:05:24;;;;;;;25.70;16.88;;;8.50;99.90;;;;;;5028031;28;20029;-72
2022/05/02 06:07:51;;;;;;;26.70;16.67;;;8.50;99.90;;;;;;5033381;28;20039;-70
2022/05/02 06:10:18;;;;;;;28.90;18.42;;;8.50;99.90;;;;;;5026142;28;20104;-72
2022/05/02 06:12:45;;;;;;;28.17;17.40;;;8.60;99.90;;;;;;5036213;28;20025;-72
2022/05/02 06:20:52;;;;;;;28.38;17.30;;;8.80;99.90;;;;;;5038533;28;19939;-72
2022/05/02 06:23:18;;;;;;;27.17;17.42;;;8.80;99.90;;;;;;5038010;28;20028;-73
2022/05/02 06:25:49;;;;;;;27.42;17.70;;;8.90;99.90;;;;;;5032913;28;20026;-72
2022/05/02 06:28:15;;;;;;;24.95;17.48;;;8.90;99.90;;;;;;5028275;28;20038;-72
2022/05/02 06:30:43;;;;;;;27.67;18.20;;;8.90;99.90;;;;;;5038470;28;20026;-72
2022/05/02 06:33:13;;;;;;;29.13;18.17;;;9.00;99.90;;;;;;5013711;28;20029;-73
2022/05/02 06:36:05;;;;;;;28.30;18.25;;;9.10;99.90;;;;;;5013396;28;20022;-72
2022/05/02 06:38:53;;;;;;;26.73;17.77;;;9.10;99.90;;;;;;5014953;28;20184;-73
2022/05/02 06:41:54;;;;;;;29.02;18.30;;;9.20;99.90;;;;;;5032839;28;20014;-72
2022/05/02 06:44:41;;;;;;;28.15;18.35;;;9.30;99.90;;;;;;5023447;28;20072;-72
2022/05/02 06:47:07;;;;;;;27.98;19.23;;;9.30;99.90;;;;;;5027858;28;20521;-73
2022/05/02 06:49:34;;;;;;;30.33;19.15;;;9.40;99.90;;;;;;5033264;28;20097;-73
2022/05/02 06:52:07;;;;;;;28.42;18.95;;;9.50;99.90;;;;;;5023179;28;20017;-73
2022/05/02 06:54:53;;;;;;;26.88;17.55;;;9.60;99.90;;;;;;5021033;28;20029;-72
2022/05/02 06:57:26;;;;;;;26.63;18.08;;;9.70;99.90;;;;;;5012931;28;20634;-72
2022/05/02 07:00:02;;;;;;;28.45;19.17;;;9.80;99.90;;;;;;5023781;28;20037;-72
2022/05/02 07:03:04;;;;;;;31.23;19.30;;;9.90;99.90;;;;;;5020346;28;20029;-72
2022/05/02 07:05:56;;;;;;;27.75;18.13;;;10.00;99.90;;;;;;5012844;28;20025;-72
2022/05/02 07:08:29;;;;;;;30.45;18.50;;;10.10;99.90;;;;;;5019016;28;20030;-72
2022/05/02 07:11:07;;;;;;;26.92;17.98;;;10.30;99.90;;;;;;5011183;28;20036;-72
2022/05/02 07:13:56;;;;;;;28.85;18.58;;;10.40;99.90;;;;;;5012359;28;20120;-72
2022/05/02 07:16:24;;;;;;;27.88;18.35;;;10.50;99.90;;;;;;5011129;28;20482;-72
2022/05/02 07:19:30;;;;;;;24.65;16.92;;;10.70;99.90;;;;;;5011617;28;20064;-72
2022/05/02 07:22:06;;;;;;;25.13;15.80;;;10.90;99.90;;;;;;5013831;28;20432;-72
2022/05/02 07:24:38;;;;;;;26.67;16.88;;;11.00;99.90;;;;;;5025462;28;20041;-73
2022/05/02 07:27:13;;;;;;;21.00;15.23;;;11.20;99.90;;;;;;5021695;28;20045;-72
2022/05/02 07:29:40;;;;;;;23.15;16.02;;;11.30;99.90;;;;;;5026527;28;20036;-72
2022/05/02 07:32:09;;;;;;;26.20;16.17;;;11.50;99.90;;;;;;5037223;28;20029;-73
2022/05/02 07:34:36;;;;;;;25.33;15.40;;;11.60;99.90;;;;;;5025401;28;20021;-73
2022/05/02 07:37:02;;;;;;;20.92;14.52;;;11.80;99.90;;;;;;5026454;28;20034;-72
2022/05/02 07:39:29;;;;;;;23.13;14.18;;;12.00;99.90;;;;;;5027836;28;20425;-72
2022/05/02 07:42:00;;;;;;;22.25;14.25;;;12.10;99.90;;;;;;5030119;28;20084;-73
2022/05/02 07:44:30;;;;;;;22.42;14.52;;;12.30;99.90;;;;;;5024446;28;20138;-72
2022/05/02 07:47:00;;;;;;;20.38;13.98;;;12.50;99.90;;;;;;5014668;28;20046;-72
2022/05/02 07:49:28;;;;;;;21.33;13.88;;;12.60;99.90;;;;;;5028948;28;20026;-72
2022/05/02 07:51:57;;;;;;;18.83;13.05;;;12.80;99.90;;;;;;5028297;28;20044;-73
2022/05/02 07:54:29;;;;;;;19.02;13.10;;;12.90;99.90;;;;;;5014773;28;20057;-72
2022/05/02 07:57:00;;;;;;;19.35;13.65;;;13.10;99.90;;;;;;5025741;28;20096;-72
2022/05/02 07:59:35;;;;;;;19.85;13.30;;;13.30;99.90;;;;;;5022445;28;20034;-72
2022/05/02 08:02:00;;;;;;;;;;;13.50;99.90;;;;;;5022198;28;20033;-74
2022/05/02 08:04:26;;;;;;;21.15;13.35;;;13.70;99.90;;;;;;5031646;28;19915;-72
2022/05/02 08:06:57;;;;;;;21.15;12.88;;;13.90;99.90;;;;;;5029857;28;20021;-72
2022/05/02 08:09:23;;;;;;;21.20;12.88;;;14.10;99.90;;;;;;5026524;28;20052;-72
2022/05/02 08:12:27;;;;;;;22.73;12.77;;;14.20;99.90;;;;;;5031153;28;20021;-72
2022/05/02 08:14:56;;;;;;;21.45;12.40;;;14.40;99.90;;;;;;5026848;28;20025;-72
2022/05/02 08:17:33;;;;;;;18.42;12.73;;;14.60;99.90;;;;;;5031228;28;20121;-72
2022/05/02 08:20:30;;;;;;;17.30;12.25;;;14.70;99.90;;;;;;5030332;28;20021;-73
2022/05/02 08:29:24;;;;;;;17.08;11.68;;;15.20;99.90;;;;;;5030410;28;20036;-73
2022/05/02 08:32:19;;;;;;;16.38;11.07;;;15.40;99.90;;;;;;5029062;28;20026;-72
2022/05/02 08:34:49;;;;;;;15.93;10.75;;;15.50;98.90;;;;;;5013099;28;20042;-72
2022/05/02 08:37:20;;;;;;;19.30;10.35;;;15.60;99.00;;;;;;5022888;28;20029;-73
2022/05/02 08:39:52;;;;;;;16.88;10.57;;;15.80;98.30;;;;;;5021245;28;20045;-72
2022/05/02 08:42:32;;;;;;;14.95;10.35;;;15.90;97.00;;;;;;5030213;28;20302;-72
2022/05/02 08:45:23;;;;;;;16.20;10.52;;;16.10;94.70;;;;;;5016620;28;20724;-72
2022/05/02 08:48:24;;;;;;;15.85;10.43;;;16.10;93.90;;;;;;5021591;28;20026;-72
2022/05/02 08:50:50;;;;;;;16.15;10.30;;;16.30;93.30;;;;;;5012451;28;20053;-72
2022/05/02 08:53:32;;;;;;;17.52;10.35;;;16.30;91.10;;;;;;5014270;28;20050;-73
2022/05/02 08:56:34;;;;;;;14.45;9.32;;;16.30;88.30;;;;;;5029033;28;20510;-72
2022/05/02 08:59:18;;;;;;;13.98;9.63;;;16.40;89.70;;;;;;5031253;28;20042;-73
2022/05/02 09:02:03;;;;;;;13.80;9.63;;;16.50;85.90;;;;;;5044052;28;20449;-73
2022/05/02 09:04:45;;;;;;;15.25;10.13;;;16.60;85.40;;;;;;5032857;28;20481;-73
2022/05/02 09:07:38;;;;;;;13.05;9.18;;;16.70;85.00;;;;;;5033602;28;20037;-73
2022/05/02 09:10:21;;;;;;;12.73;9.02;;;16.80;80.50;;;;;;5028107;28;20136;-73
2022/05/02 09:13:26;;;;;;;14.73;9.80;;;16.90;81.40;;;;;;5020459;28;20030;-73
2022/05/02 09:16:16;;;;;;;14.73;10.07;;;17.00;78.30;;;;;;5007668;28;20478;-73
2022/05/02 09:18:50;;;;;;;13.43;10.02;;;17.00;77.00;;;;;;5013592;28;20054;-73
2022/05/02 09:21:28;;;;;;;15.77;9.70;;;17.00;77.90;;;;;;5013540;28;20033;-73
2022/05/02 09:24:21;;;;;;;15.23;9.30;;;17.00;79.00;;;;;;5013778;28;20021;-73
2022/05/02 09:27:05;;;;;;;12.02;9.73;;;17.20;76.20;;;;;;5013745;28;20417;-73
2022/05/02 09:30:12;;;;;;;16.42;10.68;;;17.30;76.00;;;;;;5022959;28;20026;-74
2022/05/02 09:32:51;;;;;;;14.02;10.13;;;17.40;74.10;;;;;;5031446;28;20040;-73
2022/05/02 09:35:22;;;;;;;17.02;10.02;;;17.40;73.90;;;;;;5031935;28;20124;-73
2022/05/02 09:37:56;;;;;;;15.05;10.02;;;17.40;74.30;;;;;;5033175;28;20064;-73
2022/05/02 09:40:35;;;;;;;15.82;9.68;;;17.50;73.20;;;;;;5016775;28;20041;-72
2022/05/02 09:43:23;;;;;;;13.38;9.27;;;17.60;73.40;;;;;;5013769;28;20040;-72
2022/05/02 09:51:55;;;;;;;12.00;9.40;;;18.20;69.30;;;;;;5031558;28;20025;-72
2022/05/02 09:58:03;;;;;;;13.98;10.75;;;18.30;69.00;;;;;;5022886;28;20057;-72
2022/05/02 10:01:07;;;;;;;13.37;10.17;;;18.50;68.80;;;;;;5018698;28;20049;-73
2022/05/02 10:03:59;;;;;;;14.25;9.65;;;18.60;67.80;;;;;;5031289;28;20026;-72
2022/05/02 10:06:43;;;;;;;14.80;10.30;;;18.70;67.20;;;;;;5022516;28;20046;-72
2022/05/02 10:09:53;;;;;;;13.25;9.57;;;18.60;65.10;;;;;;5012982;28;20478;-73
2022/05/02 10:12:39;;;;;;;13.15;9.55;;;18.40;64.90;;;;;;5007358;28;20063;-73
2022/05/02 10:15:20;;;;;;;13.13;9.77;;;18.30;63.70;;;;;;5020040;28;20112;-72
2022/05/02 10:17:58;;;;;;;14.35;10.10;;;18.20;63.80;;;;;;5033015;28;20426;-73
2022/05/02 10:20:37;;;;;;;12.50;9.55;;;18.10;64.50;;;;;;5033202;28;20037;-72
2022/05/02 10:23:39;;;;;;;15.65;9.95;;;18.20;63.80;;;;;;5031605;28;20041;-72
2022/05/02 10:26:28;;;;;;;13.57;8.40;;;18.10;63.90;;;;;;5018309;28;20030;-73
2022/05/02 10:29:15;;;;;;;12.88;8.63;;;18.30;64.30;;;;;;5031474;28;20038;-72
2022/05/02 10:31:49;;;;;;;14.57;8.73;;;18.40;63.10;;;;;;5033380;28;20030;-73
2022/05/02 10:34:18;;;;;;;10.90;8.07;;;18.50;63.00;;;;;;5018438;28;20061;-72
2022/05/02 10:36:47;;;;;;;11.90;8.65;;;18.50;62.60;;;;;;5031435;28;20041;-72
2022/05/02 10:39:28;;;;;;;12.63;9.00;;;18.70;62.00;;;;;;5032566;28;20033;-73
2022/05/02 10:41:58;;;;;;;12.27;8.90;;;18.80;61.40;;;;;;5033154;28;20048;-72
2022/05/02 10:44:34;;;;;;;15.38;8.43;;;19.10;62.00;;;;;;5031912;28;20030;-73
2022/05/02 10:47:03;;;;;;;11.43;8.52;;;19.10;58.80;;;;;;5012934;28;20026;-73
2022/05/02 10:49:37;;;;;;;11.38;8.82;;;19.20;58.80;;;;;;5012644;28;20026;-72
2022/05/02 10:52:06;;;;;;;14.23;9.33;;;19.20;58.60;;;;;;5012082;28;20389;-74
2022/05/02 10:54:47;;;;;;;13.70;9.23;;;19.30;57.50;;;;;;5026370;28;20032;-74
2022/05/02 10:57:38;;;;;;;12.73;8.23;;;19.20;57.30;;;;;;5013400;28;20030;-74
2022/05/02 11:00:07;;;;;;;9.65;8.40;;;19.20;57.60;;;;;;5013952;28;20049;-74
2022/05/02 11:02:50;;;;;;;11.13;7.93;;;19.30;56.00;;;;;;5033716;28;20025;-74
2022/05/02 11:05:21;;;;;;;11.10;8.27;;;19.20;55.90;;;;;;5033735;28;20036;-74
2022/05/02 11:08:02;;;;;;;12.13;7.82;;;19.20;56.00;;;;;;5029885;28;20095;-74
2022/05/02 11:10:30;;;;;;;10.07;7.60;;;19.20;56.00;;;;;;5028572;28;20377;-74
2022/05/02 11:13:20;;;;;;;12.43;7.65;;;19.40;55.50;;;;;;5022143;28;20112;-74
2022/05/02 11:16:09;;;;;;;12.45;7.75;;;19.40;54.50;;;;;;5026348;28;20030;-75
2022/05/02 11:22:08;;;;;;;10.35;7.25;;;19.40;53.40;;;;;;5022813;28;20043;-74
2022/05/02 11:24:45;;;;;;;9.88;7.35;;;19.40;53.20;;;;;;5029612;28;20390;-74
2022/05/02 11:27:42;;;;;;;13.57;6.32;;;19.50;53.40;;;;;;5029636;28;20036;-74
2022/05/02 11:30:09;;;;;;;9.90;7.55;;;19.60;52.00;;;;;;5026650;28;20042;-74
2022/05/02 11:32:54;;;;;;;9.90;7.55;;;19.60;51.00;;;;;;5019121;28;20021;-74
2022/05/02 11:35:28;;;;;;;9.90;7.85;;;19.70;51.70;;;;;;5022496;28;20056;-74
2022/05/02 11:37:53;;;;;;;12.38;7.47;;;19.80;51.70;;;;;;5030189;28;20029;-74
2022/05/02 11:40:33;;;;;;;9.70;7.25;;;19.90;51.90;;;;;;5011538;28;20033;-74
2022/05/02 11:42:58;;;;;;;9.50;7.10;;;20.00;51.50;;;;;;5018309;28;20117;-74
2022/05/02 11:45:43;;;;;;;12.05;8.70;;;20.10;51.50;;;;;;5011324;28;20101;-74
2022/05/02 11:48:20;;;;;;;11.55;8.90;;;20.30;51.20;;;;;;5011127;28;20500;-74
2022/05/02 11:50:47;;;;;;;13.82;9.57;;;20.40;51.10;;;;;;5012679;28;20036;-74
2022/05/02 11:53:14;;;;;;;14.07;10.43;;;20.20;50.70;;;;;;5026521;28;20341;-74
2022/05/02 11:55:52;;;;;;;14.30;9.90;;;20.20;51.90;;;;;;5023346;28;20417;-74
2022/05/02 11:58:24;;;;;;;12.00;9.18;;;20.30;52.50;;;;;;5023171;28;20026;-74
2022/05/02 12:00:58;;;;;;;10.98;8.90;;;20.60;52.90;;;;;;5030377;28;20109;-74
2022/05/02 12:03:25;;;;;;;12.77;8.32;;;20.80;51.10;;;;;;5024334;28;20409;-73
2022/05/02 12:05:59;;;;;;;10.95;8.73;;;20.80;52.40;;;;;;5030594;28;20021;-74
2022/05/02 12:08:33;;;;;;;11.82;9.25;;;20.90;50.60;;;;;;5030111;28;20018;-74
2022/05/02 12:11:10;;;;;;;13.00;8.73;;;20.80;52.80;;;;;;5013662;28;20029;-73
2022/05/02 12:13:38;;;;;;;13.93;9.63;;;20.60;54.50;;;;;;5019552;28;20350;-73
2022/05/02 12:16:12;;;;;;;17.50;10.73;;;20.30;55.30;;;;;;5024573;28;20024;-74
2022/05/02 12:18:52;;;;;;;15.60;9.27;;;20.20;55.10;;;;;;5019826;28;20088;-74
2022/05/02 12:21:39;;;;;;;12.13;9.55;;;19.90;56.40;;;;;;5026764;28;20139;-73
2022/05/02 12:24:05;;;;;;;13.20;9.05;;;19.80;57.30;;;;;;5016092;28;20096;-74
2022/05/02 12:26:43;;;;;;;15.90;10.07;;;19.60;58.00;;;;;;5016462;28;20025;-74
2022/05/02 12:29:14;;;;;;;13.73;9.40;;;19.40;58.70;;;;;;5025471;28;20033;-74
2022/05/02 12:31:42;;;;;;;16.23;9.98;;;19.30;59.10;;;;;;5028806;28;20071;-74
2022/05/02 12:34:10;;;;;;;14.32;9.60;;;19.30;58.60;;;;;;5029140;28;20382;-73
2022/05/02 12:36:45;;;;;;;13.63;9.95;;;19.20;58.60;;;;;;5026844;28;20032;-74
2022/05/02 12:39:13;;;;;;;13.98;9.18;;;19.20;58.80;;;;;;5019784;28;20029;-73
2022/05/02 12:41:49;;;;;;;12.50;9.32;;;19.20;58.90;;;;;;5028255;28;20022;-74
2022/05/02 12:44:17;;;;;;;16.20;10.15;;;19.40;59.10;;;;;;5033103;28;20488;-74
2022/05/02 12:46:48;;;;;;;12.27;9.40;;;19.50;58.70;;;;;;5028292;28;20025;-74
2022/05/02 12:49:35;;;;;;;16.38;10.27;;;19.60;58.70;;;;;;5034501;28;20485;-74
2022/05/02 12:52:04;;;;;;;14.63;10.85;;;19.60;58.10;;;;;;5027024;28;20128;-74
2022/05/02 12:54:33;;;;;;;17.98;10.30;;;19.50;58.00;;;;;;5009901;28;20049;-76
2022/05/02 13:02:53;;;;;;;13.77;9.82;;;19.50;58.40;;;;;;5026534;28;20067;-74
2022/05/02 13:05:23;;;;;;;16.95;10.90;;;19.40;59.10;;;;;;5027407;28;20381;-75
2022/05/02 13:07:52;;;;;;;16.75;11.13;;;19.40;58.50;;;;;;5025623;28;20513;-73
2022/05/02 13:10:25;;;;;;;15.75;9.95;;;19.20;58.20;;;;;;5028562;28;20100;-73
2022/05/02 13:13:08;;;;;;;18.77;11.25;;;19.10;58.90;;;;;;5024178;28;20048;-74
2022/05/02 13:15:42;;;;;;;14.10;10.15;;;19.00;59.60;;;;;;5028208;28;20436;-73
2022/05/02 13:18:12;;;;;;;17.03;11.50;;;19.10;59.40;;;;;;5026567;28;20038;-71
2022/05/02 13:20:39;;;;;;;17.63;10.95;;;19.00;59.30;;;;;;5011487;28;20026;-71
2022/05/02 13:23:17;;;;;;;16.77;11.02;;;19.00;60.10;;;;;;5021359;28;20274;-73
2022/05/02 13:26:05;;;;;;;14.30;10.93;;;19.00;59.90;;;;;;5028520;28;20120;-72
2022/05/02 13:28:50;;;;;;;15.23;10.27;;;19.00;60.20;;;;;;5022873;28;20026;-73
2022/05/02 13:31:19;;;;;;;17.65;10.93;;;19.10;59.80;;;;;;5028097;28;20033;-72
2022/05/02 13:33:51;;;;;;;16.83;11.18;;;19.00;59.30;;;;;;5027840;28;20032;-72
2022/05/02 13:36:17;;;;;;;13.35;10.30;;;19.10;59.80;;;;;;5022632;28;20541;-72
2022/05/02 13:39:08;;;;;;;14.95;9.52;;;19.10;59.80;;;;;;5026789;28;20037;-72
2022/05/02 13:41:51;;;;;;;14.52;10.40;;;19.20;59.90;;;;;;5028296;28;20505;-72
2022/05/02 13:44:43;;;;;;;14.85;9.93;;;19.20;59.70;;;;;;5029728;28;20056;-72